首页
METAR-TAF:

METAR-TAF

机场 :

大分機場

大分, 日本

纬度: 33-29N, 经度: 131-44E, 海拔: 5米

当前天气观测

该预报发布于1小时和10分钟前的01:00 UTC
风速17节,风向东南
温度 27°C
湿度 94%
气压 1006 hPa
能見度: 8000
少量云层高于900英尺
散云层高于1500英尺
多云层高于4000英尺
小阵雨

METAR: RJFO 220100Z 13017KT 8000 -SHRA FEW009 SCT015 BKN040 27/26 Q1006

时间: 11:10 (02:10 UTC)

预报

该预报发布于3小时和5分钟前的23:05 UTC
预报有效从22日的 00点(UTC)到 23日的 06点(UTC)
风速25节,风向东南
能见度10公里或以上
少量云层高于1000英尺
散云层高于2000英尺
多云层高于3000英尺
短暂存在
从 22日的 00点(UTC)到 22日的 03点(UTC)
风速25节,风向东南,有时为40节阵风
能見度: 3500
小阵雨, 轻雾
短暂存在
从 22日的 03点(UTC)到 22日的 09点(UTC)
风速25节,风向东南,有时为40节阵风
成为
从 22日的 15点(UTC)到 22日的 18点(UTC)
风速13节,风向东南

TAF: RJFO 212305Z 2200/2306 13025KT 9999 FEW010 SCT020 BKN030 TEMPO 2200/2203 14025G40KT 3500 -SHRA BR TEMPO 2203/2209 14025G40KT BECMG 2215/2218 14013KT

超过4000个机场的气象观测和天气预报(METAR&TAF报告)。

可查询的气象台以黄色和红色小点在地图上表示。

将鼠标移到小点上方,可查看气象台名称。

然后点击查看天气观测和预报。

如需切换地图:点击带黑十字的绿色按钮放大地图;点击带横线的绿色按钮缩小地图;或者点击绿色箭头查看邻近地区的地图。


METAR-TAF: